Terminal Aerodrome Forecast
Issued by NWS

Home | Current Version | Previous Version | Text Only | Print | Product List | Glossary On
Versions: 1 2 3 4 5 6 7 8 9 10 11 12 13 14 15 16 17 18 19
000
FTUS42 KTBW 251151 CCA
TAFPGD
TAF COR
KPGD 251151Z 2512/2612 VRB03KT 5SM BR SCT005 BKN015
      TEMPO 2512/2514 2SM BR BKN005
     FM251400 25006KT P6SM BKN015
     FM251600 28008KT P6SM SCT035
     FM260300 31005KT P6SM FEW250
     FM260900 36006KT P6SM FEW250=

USA.gov is the U.S. government's official web portal to all federal, state and local government web resources and services.